Time;durP1;ratioP1;P1;durP2;ratioP2;P2;SDS_P1;SDS_P2;PMS_P1;PMS_P2;Temp;Humidity;BMP_temperature;BMP_pressure;BME280_temperature;BME280_humidity;BME280_pressure;Samples;Min_cycle;Max_cycle;Signal;HPM_P1;HPM_P2
2024/01/01 00:00:19;;;;;;;11.70;6.45;;;10.30;73.10;;;;;;7393322;19;19918;-72
2024/01/01 00:02:44;;;;;;;12.32;6.22;;;10.30;74.30;;;;;;7399230;19;19986;-71
2024/01/01 00:05:11;;;;;;;12.70;7.00;;;10.20;74.60;;;;;;7399594;19;19923;-71
2024/01/01 00:07:37;;;;;;;15.60;7.05;;;10.20;75.80;;;;;;7396576;19;19982;-73
2024/01/01 00:10:05;;;;;;;12.15;6.25;;;10.20;78.00;;;;;;7397501;19;19915;-72
2024/01/01 00:12:34;;;;;;;12.18;5.60;;;10.20;79.70;;;;;;7400354;19;19964;-76
2024/01/01 00:15:00;;;;;;;13.50;6.20;;;10.20;80.70;;;;;;7398819;19;19923;-73
2024/01/01 00:17:26;;;;;;;13.30;5.70;;;10.20;82.60;;;;;;7376153;19;20607;-74
2024/01/01 00:19:52;;;;;;;12.57;5.60;;;10.10;82.00;;;;;;7398107;19;19910;-73
2024/01/01 00:22:18;;;;;;;9.85;5.68;;;10.10;82.00;;;;;;7395041;19;19982;-73
2024/01/01 00:24:44;;;;;;;11.18;5.10;;;10.10;83.00;;;;;;7400829;19;19929;-72
2024/01/01 00:27:09;;;;;;;11.30;6.07;;;10.10;82.70;;;;;;7396417;19;20262;-73
2024/01/01 00:29:35;;;;;;;11.77;5.18;;;10.20;82.60;;;;;;7397564;19;19926;-71
2024/01/01 00:32:02;;;;;;;11.52;5.78;;;10.10;82.30;;;;;;7400133;19;19923;-72
2024/01/01 00:34:27;;;;;;;11.00;5.70;;;10.00;82.20;;;;;;7397072;19;20360;-72
2024/01/01 00:36:57;;;;;;;14.07;6.60;;;10.00;81.60;;;;;;7398968;19;19918;-72
2024/01/01 00:39:23;;;;;;;12.32;5.55;;;10.00;80.80;;;;;;7396946;19;20490;-72
2024/01/01 00:41:51;;;;;;;12.02;5.88;;;10.10;81.30;;;;;;7395770;19;19915;-72
2024/01/01 00:44:17;;;;;;;13.07;5.45;;;10.00;80.70;;;;;;7377210;19;20235;-71
2024/01/01 00:46:43;;;;;;;9.32;3.92;;;10.10;81.80;;;;;;7396454;19;20010;-72
2024/01/01 00:49:09;;;;;;;12.82;5.20;;;10.20;87.50;;;;;;7389831;19;19923;-72
2024/01/01 00:51:35;;;;;;;8.55;3.92;;;10.20;90.10;;;;;;7394631;19;19929;-72
2024/01/01 00:54:01;;;;;;;10.40;4.10;;;10.20;90.40;;;;;;7401493;19;19945;-72
2024/01/01 00:56:30;;;;;;;10.27;3.78;;;10.20;91.00;;;;;;7403687;19;19914;-72
2024/01/01 00:58:56;;;;;;;11.27;4.10;;;10.20;91.30;;;;;;7404408;19;19945;-71
2024/01/01 01:01:22;;;;;;;10.13;4.22;;;10.20;91.40;;;;;;7401511;19;19935;-72
2024/01/01 01:03:47;;;;;;;11.55;4.68;;;10.20;91.80;;;;;;7406170;19;19922;-72
2024/01/01 01:06:13;;;;;;;11.90;3.85;;;10.20;91.60;;;;;;7399589;19;19918;-72
2024/01/01 01:08:39;;;;;;;12.55;4.88;;;10.20;91.80;;;;;;7403776;19;19911;-71
2024/01/01 01:11:05;;;;;;;7.72;3.60;;;10.30;92.50;;;;;;7401989;19;19967;-72
2024/01/01 01:13:31;;;;;;;8.55;3.42;;;10.40;92.50;;;;;;7398744;19;19957;-72
2024/01/01 01:15:56;;;;;;;7.93;3.40;;;10.50;93.50;;;;;;7403963;19;19922;-71
2024/01/01 01:18:22;;;;;;;8.70;3.10;;;10.50;93.80;;;;;;7401285;19;19942;-71
2024/01/01 01:20:48;;;;;;;7.95;2.97;;;10.50;93.60;;;;;;7403592;19;19922;-71
2024/01/01 01:23:14;;;;;;;10.27;3.47;;;10.50;94.10;;;;;;7401114;19;20271;-71
2024/01/01 01:25:41;;;;;;;15.95;3.78;;;10.60;93.50;;;;;;7405428;19;19915;-72
2024/01/01 01:28:07;;;;;;;10.85;3.55;;;10.70;94.30;;;;;;7399420;19;19918;-71
2024/01/01 01:30:33;;;;;;;10.95;3.05;;;10.70;94.10;;;;;;7399271;19;19925;-72
2024/01/01 01:32:59;;;;;;;10.15;2.55;;;10.80;94.80;;;;;;7401921;19;20004;-72
2024/01/01 01:35:25;;;;;;;9.02;2.90;;;10.80;95.40;;;;;;7400019;19;19918;-71
2024/01/01 01:37:50;;;;;;;8.98;2.63;;;10.90;95.10;;;;;;7401179;19;19911;-70
2024/01/01 01:40:16;;;;;;;9.80;3.10;;;11.00;95.70;;;;;;7402872;19;20326;-70
2024/01/01 01:42:46;;;;;;;7.97;2.33;;;11.00;95.10;;;;;;7397854;19;20354;-71
2024/01/01 01:45:13;;;;;;;6.75;2.75;;;11.00;94.90;;;;;;7401623;19;19911;-71
2024/01/01 01:47:40;;;;;;;7.30;2.70;;;11.10;95.10;;;;;;7402564;19;19922;-72
2024/01/01 01:50:07;;;;;;;8.10;3.13;;;11.00;94.50;;;;;;7400638;19;19978;-71
2024/01/01 01:52:35;;;;;;;8.80;3.47;;;11.00;94.20;;;;;;7400304;19;19935;-71
2024/01/01 01:55:02;;;;;;;9.15;3.63;;;11.10;93.50;;;;;;7401204;19;19918;-72
2024/01/01 01:57:28;;;;;;;;;;;11.10;93.00;;;;;;7401015;19;19922;-72
2024/01/01 01:59:54;;;;;;;8.73;3.63;;;11.10;92.80;;;;;;7381725;19;19914;-71
2024/01/01 02:02:23;;;;;;;10.60;3.63;;;11.10;92.50;;;;;;7397464;19;19919;-71
2024/01/01 02:04:53;;;;;;;10.10;3.58;;;11.10;92.50;;;;;;7402628;19;19926;-73
2024/01/01 02:07:20;;;;;;;6.95;3.58;;;11.10;92.90;;;;;;7398410;19;19926;-72
2024/01/01 02:09:46;;;;;;;9.73;3.72;;;11.10;92.90;;;;;;7401045;19;19933;-72
2024/01/01 02:12:12;;;;;;;9.43;3.22;;;11.10;93.20;;;;;;7402958;19;19915;-71
2024/01/01 02:14:38;;;;;;;10.85;3.35;;;11.20;92.40;;;;;;7400652;19;19926;-72
2024/01/01 02:17:04;;;;;;;9.20;3.47;;;11.20;91.80;;;;;;7401621;19;20329;-71
2024/01/01 02:19:30;;;;;;;9.73;3.42;;;11.10;91.70;;;;;;7404632;19;19925;-71
2024/01/01 02:21:56;;;;;;;10.80;3.58;;;11.00;91.40;;;;;;7403036;19;19993;-72
2024/01/01 02:24:22;;;;;;;8.90;3.42;;;11.00;91.20;;;;;;7397347;19;19931;-72
2024/01/01 02:26:48;;;;;;;11.52;3.90;;;10.90;90.80;;;;;;7403774;19;20349;-72
2024/01/01 02:29:15;;;;;;;11.75;3.95;;;10.90;89.40;;;;;;7398726;19;19924;-72
2024/01/01 02:31:41;;;;;;;12.77;4.28;;;11.00;86.80;;;;;;7401017;19;19919;-71
2024/01/01 02:34:07;;;;;;;9.18;4.43;;;11.00;84.90;;;;;;7402099;19;20312;-71
2024/01/01 02:36:38;;;;;;;9.82;4.20;;;10.90;84.20;;;;;;7403590;19;19918;-72
2024/01/01 02:39:05;;;;;;;8.70;5.03;;;10.80;82.70;;;;;;7379439;19;19926;-72
2024/01/01 02:41:36;;;;;;;9.52;4.90;;;10.70;79.00;;;;;;7400939;19;19919;-72
2024/01/01 02:44:03;;;;;;;12.05;5.15;;;10.60;77.00;;;;;;7399580;19;19929;-71
2024/01/01 02:46:28;;;;;;;;;;;10.60;76.10;;;;;;7402889;19;19922;-71
2024/01/01 02:48:54;;;;;;;9.73;5.25;;;10.60;76.90;;;;;;7404128;19;19919;-71
2024/01/01 02:51:20;;;;;;;12.95;4.63;;;10.60;78.00;;;;;;7397925;19;19911;-72
2024/01/01 02:53:46;;;;;;;7.32;3.90;;;10.60;80.60;;;;;;7399108;19;19918;-72
2024/01/01 02:56:30;;;;;;;10.68;4.32;;;10.60;84.60;;;;;;7398541;19;20411;-70
2024/01/01 02:58:56;;;;;;;11.10;4.07;;;10.60;86.20;;;;;;7398670;19;20460;-71
2024/01/01 03:01:22;;;;;;;11.88;4.63;;;10.60;83.50;;;;;;7396391;19;19928;-72
2024/01/01 03:03:47;;;;;;;12.40;5.22;;;10.60;83.20;;;;;;7398899;19;19918;-71
2024/01/01 03:06:17;;;;;;;12.82;6.43;;;10.50;83.90;;;;;;7399415;19;19925;-73
2024/01/01 03:08:43;;;;;;;11.40;5.82;;;10.50;85.10;;;;;;7398504;19;19915;-71
2024/01/01 03:11:09;;;;;;;11.32;5.28;;;10.40;85.40;;;;;;7398070;19;19915;-71
2024/01/01 03:13:34;;;;;;;12.35;6.80;;;10.40;85.70;;;;;;7396882;19;19932;-72
2024/01/01 03:16:02;;;;;;;16.67;7.03;;;10.40;85.70;;;;;;7394625;19;20628;-70
2024/01/01 03:18:28;;;;;;;14.95;6.28;;;10.30;86.00;;;;;;7395797;19;19941;-71
2024/01/01 03:20:54;;;;;;;12.40;6.72;;;10.30;86.30;;;;;;7399383;19;20315;-71
2024/01/01 03:23:20;;;;;;;14.45;6.20;;;10.30;86.70;;;;;;7394137;19;19974;-72
2024/01/01 03:25:46;;;;;;;12.68;6.53;;;10.40;88.10;;;;;;7398302;19;19949;-71
2024/01/01 03:28:12;;;;;;;10.05;5.57;;;10.40;88.40;;;;;;7396563;19;19918;-71
2024/01/01 03:30:38;;;;;;;12.55;5.40;;;10.40;89.30;;;;;;7397531;19;19998;-71
2024/01/01 03:33:04;;;;;;;11.77;5.75;;;10.40;90.60;;;;;;7395992;19;19918;-71
2024/01/01 03:35:31;;;;;;;10.80;5.45;;;10.40;91.40;;;;;;7396371;19;19922;-71
2024/01/01 03:37:58;;;;;;;12.30;4.70;;;10.40;91.70;;;;;;7398743;19;19911;-71
2024/01/01 03:40:23;;;;;;;10.05;5.13;;;10.40;92.20;;;;;;7395174;19;19918;-71
2024/01/01 03:42:49;;;;;;;12.65;5.57;;;10.50;92.80;;;;;;7395740;19;20275;-70
2024/01/01 03:45:15;;;;;;;9.25;4.38;;;10.50;93.10;;;;;;7399495;19;20285;-71
2024/01/01 03:47:42;;;;;;;14.68;5.00;;;10.50;92.90;;;;;;7397597;19;19918;-71
2024/01/01 03:50:08;;;;;;;10.40;4.80;;;10.50;93.10;;;;;;7398119;19;19922;-72
2024/01/01 03:52:34;;;;;;;12.25;5.13;;;10.50;93.20;;;;;;7397995;19;19917;-71
2024/01/01 03:54:59;;;;;;;12.85;5.50;;;10.40;93.20;;;;;;7400276;19;20258;-71
2024/01/01 03:57:26;;;;;;;11.23;4.55;;;10.50;93.40;;;;;;7397453;19;19930;-72
2024/01/01 03:59:52;;;;;;;12.10;4.53;;;10.60;94.00;;;;;;7399309;19;20339;-71
2024/01/01 04:02:18;;;;;;;11.88;4.55;;;10.60;94.30;;;;;;7394212;19;19922;-71
2024/01/01 04:04:44;;;;;;;9.77;4.38;;;10.60;94.50;;;;;;7398032;19;19928;-71
2024/01/01 04:07:13;;;;;;;9.60;4.20;;;10.70;94.70;;;;;;7396188;19;19929;-71
2024/01/01 04:09:39;;;;;;;10.73;4.03;;;10.70;94.50;;;;;;7398775;19;19926;-71
2024/01/01 04:12:05;;;;;;;15.57;5.35;;;10.70;94.20;;;;;;7395683;19;19922;-71
2024/01/01 04:14:31;;;;;;;12.18;4.45;;;10.70;93.70;;;;;;7399328;19;19927;-71
2024/01/01 04:16:57;;;;;;;13.95;4.80;;;10.70;93.50;;;;;;7394041;19;20006;-71
2024/01/01 04:19:22;;;;;;;11.10;4.72;;;10.70;92.90;;;;;;7373777;19;19994;-71
2024/01/01 04:21:48;;;;;;;12.30;4.70;;;10.70;92.50;;;;;;7396250;19;19937;-71
2024/01/01 04:24:15;;;;;;;10.32;4.38;;;10.70;92.00;;;;;;7395033;19;19975;-71
2024/01/01 04:26:41;;;;;;;11.20;4.88;;;10.70;91.20;;;;;;7397221;19;19941;-71
2024/01/01 04:29:08;;;;;;;10.48;4.63;;;10.70;90.60;;;;;;7404210;19;19934;-72
2024/01/01 04:31:34;;;;;;;13.38;4.93;;;10.70;90.10;;;;;;7401097;19;19945;-72
2024/01/01 04:33:59;;;;;;;11.32;5.20;;;10.70;89.30;;;;;;7402149;19;20402;-72
2024/01/01 04:36:25;;;;;;;9.15;4.95;;;10.70;88.40;;;;;;7401312;19;19918;-70
2024/01/01 04:38:51;;;;;;;10.77;4.93;;;10.60;87.80;;;;;;7381216;19;19955;-71
2024/01/01 04:41:17;;;;;;;10.57;4.63;;;10.50;87.60;;;;;;7397862;19;19923;-71
2024/01/01 04:43:44;;;;;;;11.23;4.93;;;10.60;87.40;;;;;;7404476;19;19966;-71
2024/01/01 04:46:10;;;;;;;12.07;4.95;;;10.50;87.10;;;;;;7400515;19;19933;-72
2024/01/01 04:48:36;;;;;;;11.20;5.13;;;10.50;86.60;;;;;;7403085;19;19915;-71
2024/01/01 04:51:02;;;;;;;13.85;4.75;;;10.40;86.60;;;;;;7401872;19;19937;-71
2024/01/01 04:53:28;;;;;;;11.07;4.82;;;10.40;87.00;;;;;;7401422;19;19954;-72
2024/01/01 04:55:54;;;;;;;12.20;5.40;;;10.40;88.10;;;;;;7398117;19;19939;-70
2024/01/01 04:58:20;;;;;;;13.88;5.95;;;10.50;88.90;;;;;;7399397;19;20437;-71
2024/01/01 05:00:45;;;;;;;12.73;5.70;;;10.50;88.40;;;;;;7396706;19;19936;-71
2024/01/01 05:03:11;;;;;;;17.02;4.97;;;10.50;88.40;;;;;;7403228;19;20457;-71
2024/01/01 05:05:37;;;;;;;12.52;6.18;;;10.50;88.40;;;;;;7401609;19;19930;-71
2024/01/01 05:08:03;;;;;;;13.32;5.10;;;10.40;89.10;;;;;;7401374;19;19937;-71
2024/01/01 05:10:29;;;;;;;12.45;5.80;;;10.30;89.20;;;;;;7397909;19;19915;-71
2024/01/01 05:12:55;;;;;;;11.00;5.22;;;10.30;89.40;;;;;;7380380;19;19942;-72
2024/01/01 05:15:20;;;;;;;11.93;5.35;;;10.30;89.90;;;;;;7400902;19;19930;-71
2024/01/01 05:17:48;;;;;;;15.93;5.85;;;10.30;89.70;;;;;;7400175;19;20653;-71
2024/01/01 05:20:13;;;;;;;12.75;6.47;;;10.30;89.60;;;;;;7396968;19;19937;-71
2024/01/01 05:22:40;;;;;;;12.13;5.63;;;10.30;89.20;;;;;;7400984;19;19910;-71
2024/01/01 05:25:07;;;;;;;11.23;6.30;;;10.30;89.50;;;;;;7396231;19;20347;-70
2024/01/01 05:27:32;;;;;;;12.52;6.40;;;10.20;89.60;;;;;;7399910;19;19935;-71
2024/01/01 05:29:59;;;;;;;14.88;6.30;;;10.20;90.00;;;;;;7394659;19;20554;-72
2024/01/01 05:32:24;;;;;;;13.95;6.28;;;10.20;90.40;;;;;;7398814;19;19923;-72
2024/01/01 05:34:50;;;;;;;13.07;5.50;;;10.10;90.30;;;;;;7399820;19;19914;-71
2024/01/01 05:37:16;;;;;;;13.18;5.90;;;10.10;90.40;;;;;;7394663;19;19918;-71
2024/01/01 05:39:42;;;;;;;14.57;6.13;;;10.00;90.40;;;;;;7398262;19;20362;-70
2024/01/01 05:42:08;;;;;;;11.98;6.13;;;10.10;90.80;;;;;;7397459;19;19922;-71
2024/01/01 05:44:33;;;;;;;12.75;5.95;;;10.10;90.80;;;;;;7397821;19;19928;-71
2024/01/01 05:46:59;;;;;;;13.65;6.65;;;10.10;90.40;;;;;;7400495;19;20253;-70
2024/01/01 05:49:25;;;;;;;11.88;6.75;;;10.10;90.50;;;;;;7398156;19;19923;-71
2024/01/01 05:51:51;;;;;;;13.73;6.43;;;10.10;90.20;;;;;;7402336;19;19978;-71
2024/01/01 05:54:16;;;;;;;12.23;6.03;;;10.00;90.20;;;;;;7399348;19;19949;-71
2024/01/01 05:56:44;;;;;;;13.93;6.03;;;10.00;90.50;;;;;;7398326;19;19914;-72
2024/01/01 05:59:09;;;;;;;11.73;6.28;;;10.00;90.50;;;;;;7401222;19;19911;-71
2024/01/01 06:01:35;;;;;;;13.93;6.60;;;10.00;91.00;;;;;;7399300;19;20879;-70
2024/01/01 06:04:01;;;;;;;13.88;6.63;;;10.00;91.10;;;;;;7378063;19;20062;-71
2024/01/01 06:06:27;;;;;;;13.73;6.03;;;9.90;91.10;;;;;;7395969;19;19922;-71
2024/01/01 06:08:53;;;;;;;13.77;6.25;;;10.00;91.40;;;;;;7402053;19;19929;-71
2024/01/01 06:11:18;;;;;;;12.77;5.95;;;10.00;91.20;;;;;;7396001;19;19926;-72
2024/01/01 06:13:45;;;;;;;12.48;6.25;;;10.00;90.90;;;;;;7399121;19;19930;-71
2024/01/01 06:16:13;;;;;;;14.60;6.78;;;9.90;90.60;;;;;;7395268;19;19953;-71
2024/01/01 06:18:39;;;;;;;13.55;6.20;;;10.00;90.60;;;;;;7400122;19;19926;-71
2024/01/01 06:21:05;;;;;;;13.20;7.13;;;9.90;90.20;;;;;;7393338;19;19994;-71
2024/01/01 06:23:31;;;;;;;14.48;7.18;;;9.90;89.10;;;;;;7403301;19;20394;-71
2024/01/01 06:25:56;;;;;;;12.20;6.60;;;9.80;88.20;;;;;;7399321;19;19915;-72
2024/01/01 06:28:22;;;;;;;13.32;7.03;;;9.80;87.30;;;;;;7400867;19;19942;-72
2024/01/01 06:30:48;;;;;;;13.18;6.63;;;9.80;86.40;;;;;;7400278;19;19919;-71
2024/01/01 06:33:14;;;;;;;13.82;6.90;;;9.80;84.80;;;;;;7400698;19;20582;-71
2024/01/01 06:35:40;;;;;;;12.52;6.22;;;9.70;85.40;;;;;;7401145;19;19915;-70
2024/01/01 06:38:06;;;;;;;13.00;6.10;;;9.80;85.50;;;;;;7397749;19;19934;-72
2024/01/01 06:40:32;;;;;;;12.77;5.78;;;9.80;82.90;;;;;;7401474;19;19919;-71
2024/01/01 06:42:58;;;;;;;21.20;5.60;;;9.80;80.90;;;;;;7399946;19;19919;-71
2024/01/01 06:45:24;;;;;;;10.95;5.75;;;9.90;78.70;;;;;;7400744;19;20271;-71
2024/01/01 06:47:50;;;;;;;10.07;4.97;;;9.90;76.50;;;;;;7400465;19;19918;-71
2024/01/01 06:50:16;;;;;;;10.63;5.32;;;9.90;75.50;;;;;;7398654;19;19918;-71
2024/01/01 06:52:41;;;;;;;14.85;4.80;;;9.90;75.20;;;;;;7399267;19;19907;-71
2024/01/01 06:55:07;;;;;;;12.50;5.40;;;9.90;74.60;;;;;;7397178;19;19921;-71
2024/01/01 06:57:33;;;;;;;11.57;4.22;;;10.00;74.40;;;;;;7402057;19;19919;-72
2024/01/01 06:59:59;;;;;;;13.32;4.97;;;10.00;74.40;;;;;;7402205;19;19923;-71
2024/01/01 07:02:29;;;;;;;12.93;5.53;;;9.90;74.80;;;;;;7396168;19;19933;-72
2024/01/01 07:04:55;;;;;;;10.00;5.55;;;10.00;76.00;;;;;;7400804;19;19932;-71
2024/01/01 07:07:20;;;;;;;11.43;4.68;;;10.00;75.70;;;;;;7396039;19;20001;-71
2024/01/01 07:09:46;;;;;;;7.30;3.80;;;10.00;75.70;;;;;;7401563;19;20254;-71
2024/01/01 07:12:27;;;;;;;14.27;4.95;;;10.00;76.50;;;;;;7397051;19;19929;-71
2024/01/01 07:14:54;;;;;;;7.85;4.00;;;10.00;76.10;;;;;;7399742;19;19914;-71
2024/01/01 07:17:20;;;;;;;23.08;11.90;;;10.00;76.40;;;;;;7395482;19;20646;-72
2024/01/01 07:19:47;;;;;;;11.52;4.75;;;10.00;76.80;;;;;;7401417;19;20002;-71
2024/01/01 07:22:13;;;;;;;14.00;4.35;;;10.00;76.50;;;;;;7397406;19;20303;-71
2024/01/01 07:24:39;;;;;;;10.60;4.78;;;10.00;76.90;;;;;;7398853;19;19926;-72
2024/01/01 07:27:05;;;;;;;10.55;4.30;;;10.00;76.90;;;;;;7373580;19;20331;-71
2024/01/01 07:29:32;;;;;;;9.88;4.57;;;10.00;76.00;;;;;;7398466;19;20243;-72
2024/01/01 07:31:58;;;;;;;9.80;4.25;;;10.10;75.30;;;;;;7396481;19;19914;-71
2024/01/01 07:34:25;;;;;;;11.15;5.13;;;10.20;73.40;;;;;;7394869;19;20310;-71
2024/01/01 07:36:51;;;;;;;10.25;5.13;;;10.20;72.60;;;;;;7397228;19;19926;-71
2024/01/01 07:39:19;;;;;;;10.77;4.90;;;10.20;72.00;;;;;;7396200;19;19911;-71
2024/01/01 07:41:48;;;;;;;16.88;6.05;;;10.30;71.10;;;;;;7397226;19;19918;-71
2024/01/01 07:44:14;;;;;;;11.50;5.05;;;10.30;71.10;;;;;;7393844;19;19922;-71
2024/01/01 07:46:41;;;;;;;14.20;5.28;;;10.30;71.40;;;;;;7396611;19;19922;-71
2024/01/01 07:49:07;;;;;;;13.40;4.70;;;10.30;71.60;;;;;;7395467;19;19910;-70
2024/01/01 07:51:34;;;;;;;10.25;5.45;;;10.40;71.20;;;;;;7398617;19;19928;-70
2024/01/01 07:54:00;;;;;;;9.90;4.72;;;10.40;70.70;;;;;;7399366;19;19931;-71
2024/01/01 07:56:26;;;;;;;9.40;4.75;;;10.40;70.80;;;;;;7391739;19;19922;-72
2024/01/01 07:58:55;;;;;;;12.05;6.13;;;10.40;70.80;;;;;;7397105;19;19923;-72
2024/01/01 08:01:21;;;;;;;12.07;5.15;;;10.40;71.40;;;;;;7393959;19;19933;-71
2024/01/01 08:03:47;;;;;;;11.88;5.63;;;10.40;72.60;;;;;;7398964;19;20331;-72
2024/01/01 08:06:13;;;;;;;12.00;5.80;;;10.30;72.90;;;;;;7394516;19;19931;-71
2024/01/01 08:08:40;;;;;;;11.27;5.70;;;10.40;73.40;;;;;;7398118;19;19914;-72
2024/01/01 08:11:06;;;;;;;12.82;5.05;;;10.40;73.10;;;;;;7394509;19;19926;-72
2024/01/01 08:13:32;;;;;;;10.23;4.70;;;10.50;72.10;;;;;;7397226;19;19930;-72
2024/01/01 08:15:59;;;;;;;10.73;5.20;;;10.50;72.30;;;;;;7395680;19;20277;-72
2024/01/01 08:18:25;;;;;;;;;;;10.50;71.60;;;;;;7397332;19;19926;-71
2024/01/01 08:20:51;;;;;;;13.18;5.07;;;10.60;71.90;;;;;;7395336;19;20266;-71
2024/01/01 08:23:17;;;;;;;13.93;5.93;;;10.70;71.90;;;;;;7392970;19;20030;-72
2024/01/01 08:25:42;;;;;;;10.65;5.50;;;10.70;71.30;;;;;;7395241;19;19918;-71
2024/01/01 08:28:08;;;;;;;14.02;5.97;;;10.70;70.40;;;;;;7375318;19;20446;-71
2024/01/01 08:30:40;;;;;;;10.93;5.47;;;10.80;69.40;;;;;;7380031;19;19915;-72
2024/01/01 08:33:06;;;;;;;13.52;6.35;;;10.90;67.90;;;;;;7395475;19;19955;-72
2024/01/01 08:35:32;;;;;;;13.13;5.88;;;10.90;66.70;;;;;;7394529;19;19987;-71
2024/01/01 08:37:58;;;;;;;13.85;5.78;;;10.90;65.80;;;;;;7396067;19;19919;-72
2024/01/01 08:40:23;;;;;;;11.45;5.82;;;10.90;65.40;;;;;;7393304;19;19922;-71
2024/01/01 08:42:50;;;;;;;13.60;6.00;;;10.90;65.60;;;;;;7395565;19;19926;-72
2024/01/01 08:45:19;;;;;;;12.80;5.78;;;11.00;65.60;;;;;;7394572;19;19918;-72
2024/01/01 08:47:46;;;;;;;12.60;5.75;;;11.00;65.50;;;;;;7395471;19;20332;-72
2024/01/01 08:50:14;;;;;;;11.27;5.68;;;11.00;65.40;;;;;;7396750;19;19919;-72
2024/01/01 08:52:40;;;;;;;11.55;5.55;;;11.10;64.80;;;;;;7396572;19;19919;-72
2024/01/01 08:55:06;;;;;;;10.63;5.78;;;11.10;63.80;;;;;;7393546;19;20591;-72
2024/01/01 08:57:32;;;;;;;13.13;6.82;;;11.10;63.00;;;;;;7394044;19;20562;-71
2024/01/01 08:59:58;;;;;;;13.70;5.65;;;11.10;62.90;;;;;;7393618;19;19940;-73
2024/01/01 09:02:24;;;;;;;11.88;5.95;;;11.20;62.70;;;;;;7394125;19;19933;-73
2024/01/01 09:04:49;;;;;;;16.35;7.38;;;11.20;61.80;;;;;;7386689;19;20358;-71
2024/01/01 09:07:15;;;;;;;12.98;7.28;;;11.20;61.80;;;;;;7394073;19;19930;-72
2024/01/01 09:09:42;;;;;;;14.00;7.32;;;11.20;61.50;;;;;;7397401;19;19935;-71
2024/01/01 09:12:08;;;;;;;15.15;6.90;;;11.20;59.30;;;;;;7391410;19;19919;-71
2024/01/01 09:14:36;;;;;;;15.05;7.40;;;11.20;58.60;;;;;;7399502;19;19983;-72
2024/01/01 09:17:07;;;;;;;14.73;7.60;;;11.20;59.30;;;;;;7399718;19;19929;-72
2024/01/01 09:19:40;;;;;;;12.50;7.28;;;11.20;59.10;;;;;;7402902;19;20351;-72
2024/01/01 09:22:08;;;;;;;14.35;8.18;;;11.30;58.70;;;;;;7403134;19;19918;-72
2024/01/01 09:24:34;;;;;;;15.80;7.78;;;11.30;58.70;;;;;;7402341;19;20339;-72
2024/01/01 09:26:59;;;;;;;13.35;7.13;;;11.30;58.40;;;;;;7402562;19;19930;-72
2024/01/01 09:29:25;;;;;;;13.93;7.78;;;11.40;59.20;;;;;;7398143;19;20375;-72
2024/01/01 09:31:51;;;;;;;13.23;8.10;;;11.60;58.50;;;;;;7401284;19;19914;-72
2024/01/01 09:34:17;;;;;;;12.73;6.97;;;11.60;58.00;;;;;;7401143;19;19929;-71
2024/01/01 09:36:44;;;;;;;13.95;7.90;;;11.70;57.50;;;;;;7401796;19;19919;-72
2024/01/01 09:39:09;;;;;;;26.52;15.07;;;11.70;58.10;;;;;;7398842;19;19934;-72
2024/01/01 09:41:35;;;;;;;16.92;8.88;;;11.80;57.40;;;;;;7399509;19;20331;-71
2024/01/01 09:44:02;;;;;;;13.18;7.60;;;11.90;57.40;;;;;;7402832;19;19930;-73
2024/01/01 09:46:32;;;;;;;;;;;12.00;57.30;;;;;;7401772;19;20743;-72
2024/01/01 09:48:59;;;;;;;12.43;7.30;;;12.10;57.30;;;;;;7402334;19;20906;-71
2024/01/01 09:51:26;;;;;;;;;;;12.10;55.90;;;;;;7398539;19;19958;-71
2024/01/01 09:53:52;;;;;;;13.77;7.15;;;12.20;55.90;;;;;;7400735;19;19922;-72
2024/01/01 09:56:18;;;;;;;14.65;8.05;;;12.30;55.90;;;;;;7398126;19;20027;-72
2024/01/01 09:58:45;;;;;;;15.45;8.45;;;12.30;55.70;;;;;;7401444;19;20041;-72
2024/01/01 10:01:13;;;;;;;14.60;7.65;;;12.40;55.40;;;;;;7397813;19;19915;-72
2024/01/01 10:03:40;;;;;;;14.98;7.68;;;12.50;55.30;;;;;;7400555;19;19918;-71
2024/01/01 10:06:12;;;;;;;12.93;7.78;;;12.60;55.20;;;;;;7397338;19;19919;-72
2024/01/01 10:08:41;;;;;;;14.65;7.93;;;12.70;55.10;;;;;;7402538;19;19915;-71
2024/01/01 10:11:19;;;;;;;13.88;7.95;;;12.70;55.10;;;;;;7397957;19;20468;-72
2024/01/01 10:13:45;;;;;;;11.85;7.03;;;12.90;55.20;;;;;;7399418;19;20030;-71
2024/01/01 10:16:25;;;;;;;15.20;7.50;;;13.00;54.60;;;;;;7396194;19;20988;-71
2024/01/01 10:18:56;;;;;;;14.70;7.22;;;13.10;53.70;;;;;;7379789;19;19940;-72
2024/01/01 10:21:36;;;;;;;14.30;6.43;;;13.10;53.10;;;;;;7373113;19;20055;-71
2024/01/01 10:24:31;;;;;;;12.73;6.20;;;13.20;52.30;;;;;;7398370;19;19930;-72
2024/01/01 10:26:57;;;;;;;15.25;6.22;;;13.30;52.10;;;;;;7398484;19;19954;-74
2024/01/01 10:29:26;;;;;;;12.98;6.20;;;13.30;52.20;;;;;;7397565;19;19935;-72
2024/01/01 10:31:52;;;;;;;12.32;6.28;;;13.50;51.90;;;;;;7399287;19;19918;-71
2024/01/01 10:34:20;;;;;;;12.50;6.60;;;13.60;52.30;;;;;;7396798;19;19921;-73
2024/01/01 10:36:46;;;;;;;13.35;6.72;;;13.70;51.90;;;;;;7397710;19;19914;-71
2024/01/01 10:39:12;;;;;;;16.33;8.15;;;13.80;51.90;;;;;;7396899;19;19919;-71
2024/01/01 10:41:39;;;;;;;14.98;9.32;;;13.80;48.60;;;;;;7376939;19;19928;-71
2024/01/01 10:44:10;;;;;;;17.33;9.25;;;13.80;47.30;;;;;;7375367;19;19914;-72
2024/01/01 10:46:39;;;;;;;16.35;10.02;;;13.90;46.00;;;;;;7398598;19;19922;-73
2024/01/01 10:49:11;;;;;;;15.48;9.27;;;14.00;44.70;;;;;;7395799;19;20825;-71
2024/01/01 10:51:42;;;;;;;16.15;9.23;;;14.00;43.90;;;;;;7400846;19;19935;-72
2024/01/01 10:54:26;;;;;;;14.23;9.55;;;14.00;43.20;;;;;;7394294;19;19967;-74
2024/01/01 10:57:22;;;;;;;17.00;9.88;;;14.10;42.70;;;;;;7398877;19;19925;-71
2024/01/01 11:00:11;;;;;;;17.92;9.60;;;14.30;41.70;;;;;;7376666;19;19919;-72
2024/01/01 11:02:38;;;;;;;17.92;10.27;;;14.40;40.80;;;;;;7397022;19;19914;-72
2024/01/01 11:05:08;;;;;;;15.07;8.90;;;14.60;40.30;;;;;;7398029;19;19959;-71
2024/01/01 11:07:53;;;;;;;20.27;9.85;;;14.70;39.70;;;;;;7395213;19;19922;-72
2024/01/01 11:10:49;;;;;;;15.73;9.30;;;14.90;39.40;;;;;;7397768;19;19918;-72
2024/01/01 11:13:26;;;;;;;17.58;10.07;;;14.80;38.30;;;;;;7400688;19;19919;-71
2024/01/01 11:16:00;;;;;;;16.00;9.75;;;14.90;38.00;;;;;;7396831;19;19926;-72
2024/01/01 11:18:37;;;;;;;17.08;8.88;;;15.10;37.60;;;;;;7396478;19;19930;-73
2024/01/01 11:21:06;;;;;;;17.55;9.82;;;15.00;36.70;;;;;;7395277;19;19918;-73
2024/01/01 11:23:46;;;;;;;14.00;9.30;;;14.90;37.30;;;;;;7396086;19;19939;-72
2024/01/01 11:26:23;;;;;;;14.48;8.98;;;15.00;36.60;;;;;;7394897;19;19922;-71
2024/01/01 11:28:56;;;;;;;15.68;7.95;;;15.30;35.40;;;;;;7397123;19;19918;-73
2024/01/01 11:31:27;;;;;;;14.20;8.32;;;15.60;32.80;;;;;;7398193;19;20371;-74
2024/01/01 11:34:09;;;;;;;13.32;8.32;;;15.30;32.20;;;;;;7398001;19;19918;-72
2024/01/01 11:36:42;;;;;;;13.48;8.52;;;16.00;31.70;;;;;;7394887;19;19954;-72
2024/01/01 11:39:08;;;;;;;15.40;8.73;;;17.30;27.70;;;;;;7395510;19;19917;-72
2024/01/01 11:41:34;;;;;;;13.50;8.90;;;17.90;25.30;;;;;;7397245;19;20002;-71
2024/01/01 11:44:11;;;;;;;13.63;8.23;;;18.70;22.80;;;;;;7395531;19;20343;-72
2024/01/01 11:46:38;;;;;;;13.77;8.98;;;19.50;20.40;;;;;;7396162;19;19921;-71
2024/01/01 11:49:04;;;;;;;13.88;8.48;;;20.30;17.30;;;;;;7393882;19;19929;-73
2024/01/01 11:51:47;;;;;;;14.13;8.45;;;20.90;14.90;;;;;;7396730;19;19930;-72
2024/01/01 11:54:12;;;;;;;15.00;9.35;;;21.20;13.80;;;;;;7394344;19;20610;-71
2024/01/01 11:56:39;;;;;;;16.50;10.75;;;21.70;11.60;;;;;;7395946;19;19939;-73
2024/01/01 11:59:08;;;;;;;15.63;11.00;;;21.80;10.10;;;;;;7392024;19;20642;-72
2024/01/01 12:01:37;;;;;;;22.60;13.10;;;21.50;9.70;;;;;;7397434;19;20273;-72
2024/01/01 12:04:06;;;;;;;16.65;12.93;;;22.30;8.70;;;;;;7392285;19;19945;-72
2024/01/01 12:06:33;;;;;;;20.77;13.15;;;22.80;8.30;;;;;;7395384;19;19907;-72
2024/01/01 12:09:09;;;;;;;16.50;10.77;;;22.40;6.70;;;;;;7393218;19;19992;-72
2024/01/01 12:11:40;;;;;;;16.10;11.57;;;21.80;7.20;;;;;;7387645;19;19965;-72
2024/01/01 12:14:06;;;;;;;14.35;10.55;;;21.80;6.70;;;;;;7394004;19;19911;-72
2024/01/01 12:16:33;;;;;;;;;;;22.80;5.30;;;;;;7399707;19;19918;-73
2024/01/01 12:19:00;;;;;;;13.35;9.85;;;23.10;4.50;;;;;;7394247;19;19915;-74
2024/01/01 12:21:43;;;;;;;13.20;10.32;;;23.80;2.70;;;;;;7394004;19;19926;-73
2024/01/01 12:24:14;;;;;;;17.02;13.52;;;24.40;2.10;;;;;;7394572;19;19953;-72
2024/01/01 12:26:40;;;;;;;18.63;11.05;;;23.50;1.10;;;;;;7392995;19;19925;-72
2024/01/01 12:29:17;;;;;;;14.43;10.48;;;23.50;1.40;;;;;;7393937;19;19991;-73
2024/01/01 12:31:44;;;;;;;15.23;10.50;;;23.60;1.40;;;;;;7393334;19;20434;-72
2024/01/01 12:34:15;;;;;;;16.85;12.20;;;24.10;1.00;;;;;;7394864;19;19919;-72
2024/01/01 12:36:43;;;;;;;14.38;10.15;;;24.30;1.00;;;;;;7394624;19;19915;-73
2024/01/01 12:39:10;;;;;;;12.60;8.98;;;24.00;1.00;;;;;;7396206;19;19919;-72
2024/01/01 12:41:37;;;;;;;13.90;9.70;;;24.70;1.00;;;;;;7393066;19;20314;-72